createdAt,value
2019-05-17T00:00:37.924Z,7.77
2019-05-17T00:01:37.860Z,7.69
2019-05-17T00:02:37.833Z,7.63
2019-05-17T00:03:37.820Z,7.60
2019-05-17T00:04:37.761Z,7.57
2019-05-17T00:05:37.741Z,7.60
2019-05-17T00:06:37.705Z,7.56
2019-05-17T00:07:37.666Z,7.50
2019-05-17T00:08:38.482Z,7.48
2019-05-17T00:09:37.605Z,7.51
2019-05-17T00:10:37.880Z,7.43
2019-05-17T00:11:37.540Z,7.48
2019-05-17T00:12:37.576Z,7.43
2019-05-17T00:13:38.800Z,7.32
2019-05-17T00:14:37.455Z,7.33
2019-05-17T00:15:37.436Z,7.33
2019-05-17T00:16:37.621Z,7.31
2019-05-17T00:17:37.850Z,7.21
2019-05-17T00:18:37.347Z,7.31
2019-05-17T00:19:37.285Z,7.17
2019-05-17T00:20:37.701Z,7.07
2019-05-17T00:21:37.221Z,7.11
2019-05-17T00:22:37.194Z,7.11
2019-05-17T00:23:37.610Z,7.14
2019-05-17T00:24:37.252Z,7.13
2019-05-17T00:25:37.170Z,7.07
2019-05-17T00:26:39.681Z,6.99
2019-05-17T00:27:37.038Z,7.03
2019-05-17T00:28:37.489Z,6.99
2019-05-17T00:29:37.272Z,6.89
2019-05-17T00:30:37.457Z,6.95
2019-05-17T00:31:37.125Z,6.96
2019-05-17T00:32:37.111Z,6.95
2019-05-17T00:33:36.884Z,6.89
2019-05-17T00:34:37.679Z,6.89
2019-05-17T00:35:37.531Z,6.84
2019-05-17T00:36:37.468Z,6.79
2019-05-17T00:37:37.256Z,6.85
2019-05-17T00:38:47.521Z,6.88
2019-05-17T00:39:36.832Z,6.92
2019-05-17T00:40:36.893Z,6.89
2019-05-17T00:41:37.491Z,6.87
2019-05-17T00:42:37.185Z,6.92
2019-05-17T00:43:36.980Z,6.89
2019-05-17T00:44:36.753Z,6.77
2019-05-17T00:45:37.651Z,6.77
2019-05-17T00:46:37.256Z,6.78
2019-05-17T00:47:37.485Z,6.74
2019-05-17T00:48:37.196Z,6.75
2019-05-17T00:49:37.182Z,6.72
2019-05-17T00:50:37.842Z,6.69
2019-05-17T00:51:36.904Z,6.79
2019-05-17T00:52:36.859Z,6.77
2019-05-17T00:53:36.300Z,6.74
2019-05-17T00:54:36.304Z,6.70
2019-05-17T00:55:36.490Z,6.69
2019-05-17T00:56:37.228Z,6.66
2019-05-17T00:57:36.848Z,6.67
2019-05-17T00:58:37.002Z,6.70
2019-05-17T00:59:36.912Z,6.74
2019-05-17T01:00:37.644Z,6.82
2019-05-17T01:01:36.491Z,6.81
2019-05-17T01:02:36.350Z,6.79
2019-05-17T01:03:36.295Z,6.87
2019-05-17T01:04:36.810Z,6.92
2019-05-17T01:05:37.002Z,6.93
2019-05-17T01:06:37.601Z,6.92
2019-05-17T01:07:37.676Z,6.89
2019-05-17T01:08:37.267Z,6.88
2019-05-17T01:09:36.711Z,6.88
2019-05-17T01:10:36.868Z,7.06
2019-05-17T01:11:36.629Z,7.05
2019-05-17T01:12:36.600Z,6.99
2019-05-17T01:13:37.507Z,7.05
2019-05-17T01:14:37.239Z,7.10
2019-05-17T01:15:36.899Z,7.13
2019-05-17T01:16:36.803Z,7.10
2019-05-17T01:17:36.571Z,7.13
2019-05-17T01:18:36.170Z,7.14
2019-05-17T01:19:36.516Z,7.17
2019-05-17T01:20:36.880Z,7.24
2019-05-17T01:21:36.719Z,7.28
2019-05-17T01:22:36.680Z,7.31
2019-05-17T01:23:36.277Z,7.35
2019-05-17T01:24:36.883Z,7.31
2019-05-17T01:25:36.740Z,7.39
2019-05-17T01:26:37.218Z,7.42
2019-05-17T01:27:35.095Z,7.43
2019-05-17T01:28:36.317Z,7.42
2019-05-17T01:29:36.371Z,7.42
2019-05-17T01:30:37.178Z,7.43
2019-05-17T01:31:37.137Z,7.58
2019-05-17T01:32:37.208Z,7.63
2019-05-17T01:33:36.751Z,7.67
2019-05-17T01:34:37.394Z,7.67
2019-05-17T01:35:37.134Z,7.66
2019-05-17T01:36:36.877Z,7.75
2019-05-17T01:37:37.105Z,7.79
2019-05-17T01:38:34.755Z,7.77
2019-05-17T01:39:37.260Z,7.91
2019-05-17T01:40:36.954Z,7.82
2019-05-17T01:41:34.660Z,7.79
2019-05-17T01:42:37.141Z,7.95
2019-05-17T01:43:36.615Z,7.91
2019-05-17T01:44:36.589Z,7.94
2019-05-17T01:45:36.504Z,7.94
2019-05-17T01:46:36.858Z,7.87
2019-05-17T01:47:36.589Z,7.82
2019-05-17T01:48:36.469Z,7.88
2019-05-17T01:49:36.306Z,7.88
2019-05-17T01:50:34.393Z,7.93
2019-05-17T01:51:34.342Z,7.94
2019-05-17T01:52:36.765Z,8.03
2019-05-17T01:53:36.316Z,8.00
2019-05-17T01:54:36.277Z,8.01
2019-05-17T01:55:34.257Z,8.10
2019-05-17T01:56:34.180Z,8.08
2019-05-17T01:57:36.751Z,8.12
2019-05-17T01:58:36.330Z,8.13
2019-05-17T01:59:37.134Z,8.16
2019-05-17T02:00:34.079Z,8.18
2019-05-17T02:01:34.031Z,8.28
2019-05-17T02:02:36.460Z,8.27
2019-05-17T02:03:33.971Z,8.33
2019-05-17T02:04:33.934Z,8.36
2019-05-17T02:05:33.931Z,8.36
2019-05-17T02:06:36.398Z,8.28
2019-05-17T02:07:33.841Z,8.33
2019-05-17T02:08:33.810Z,8.34
2019-05-17T02:09:37.892Z,8.36
2019-05-17T02:10:33.778Z,8.26
2019-05-17T02:11:33.732Z,8.38
2019-05-17T02:12:33.685Z,8.41
2019-05-17T02:13:33.656Z,8.28
2019-05-17T02:14:33.636Z,8.26
2019-05-17T02:15:33.617Z,8.33
2019-05-17T02:16:33.556Z,8.31
2019-05-17T02:17:33.577Z,8.30
2019-05-17T02:18:33.498Z,8.36
2019-05-17T02:19:33.469Z,8.30
2019-05-17T02:20:33.493Z,8.28
2019-05-17T02:21:36.010Z,8.36
2019-05-17T02:22:33.397Z,8.37
2019-05-17T02:23:33.403Z,8.41
2019-05-17T02:24:33.314Z,8.38
2019-05-17T02:25:33.328Z,8.30
2019-05-17T02:26:33.276Z,8.28
2019-05-17T02:27:38.229Z,8.33
2019-05-17T02:28:33.227Z,8.34
2019-05-17T02:29:33.278Z,8.37
2019-05-17T02:30:33.908Z,8.33
2019-05-17T02:31:33.100Z,8.33
2019-05-17T02:32:33.789Z,8.31
2019-05-17T02:33:33.419Z,8.30
2019-05-17T02:34:33.801Z,8.36
2019-05-17T02:35:33.786Z,8.30
2019-05-17T02:36:33.370Z,8.34
2019-05-17T02:37:33.558Z,8.30
2019-05-17T02:38:33.454Z,8.31
2019-05-17T02:39:32.993Z,8.19
2019-05-17T02:40:34.009Z,8.20
2019-05-17T02:41:33.347Z,8.16
2019-05-17T02:42:33.493Z,8.03
2019-05-17T02:43:33.649Z,8.10
2019-05-17T02:44:33.489Z,8.06
2019-05-17T02:45:33.305Z,8.00
2019-05-17T02:46:33.819Z,7.93
2019-05-17T02:47:33.692Z,7.91
2019-05-17T02:48:33.938Z,7.90
2019-05-17T02:49:33.085Z,7.93
2019-05-17T02:50:33.393Z,7.83
2019-05-17T02:51:32.661Z,7.94
2019-05-17T02:52:33.035Z,7.88
2019-05-17T02:53:33.551Z,7.85
2019-05-17T02:54:32.976Z,7.94
2019-05-17T02:55:32.638Z,7.94
2019-05-17T02:56:32.895Z,7.98
2019-05-17T02:57:34.698Z,7.95
2019-05-17T02:58:33.050Z,7.94
2019-05-17T02:59:33.062Z,7.95
2019-05-17T03:00:33.798Z,7.94
2019-05-17T03:01:33.247Z,8.05
2019-05-17T03:02:34.093Z,7.93
2019-05-17T03:03:32.395Z,8.00
2019-05-17T03:04:32.717Z,7.94
2019-05-17T03:05:33.708Z,7.95
2019-05-17T03:06:32.892Z,8.06
2019-05-17T03:07:32.598Z,8.00
2019-05-17T03:08:34.207Z,7.98
2019-05-17T03:09:33.633Z,8.00
2019-05-17T03:10:33.573Z,8.01
2019-05-17T03:11:33.291Z,7.98
2019-05-17T03:12:32.937Z,7.95
2019-05-17T03:13:32.963Z,7.98
2019-05-17T03:14:32.702Z,7.91
2019-05-17T03:15:32.473Z,7.75
2019-05-17T03:16:33.836Z,7.82
2019-05-17T03:17:33.946Z,7.80
2019-05-17T03:18:33.387Z,7.94
2019-05-17T03:19:32.726Z,7.95
2019-05-17T03:20:32.789Z,8.05
2019-05-17T03:21:33.728Z,8.00
2019-05-17T03:22:33.222Z,8.03
2019-05-17T03:23:32.841Z,8.12
2019-05-17T03:24:33.279Z,8.10
2019-05-17T03:25:33.345Z,8.16
2019-05-17T03:26:32.782Z,8.24
2019-05-17T03:27:33.665Z,8.26
2019-05-17T03:28:33.660Z,8.31
2019-05-17T03:29:33.554Z,8.30
2019-05-17T03:30:36.726Z,8.36
2019-05-17T03:31:41.446Z,8.41
2019-05-17T03:32:36.010Z,8.33
2019-05-17T03:33:35.955Z,8.49
2019-05-17T03:34:36.376Z,8.41
2019-05-17T03:35:36.702Z,8.44
2019-05-17T03:36:35.574Z,8.49
2019-05-17T03:37:37.314Z,8.60
2019-05-17T03:38:32.531Z,8.55
2019-05-17T03:39:33.293Z,8.61
2019-05-17T03:41:02.273Z,8.58
2019-05-17T03:41:33.767Z,8.66
2019-05-17T03:42:33.098Z,8.60
2019-05-17T03:43:34.773Z,8.69
2019-05-17T03:44:33.283Z,8.66
2019-05-17T03:45:34.073Z,8.69
2019-05-17T03:46:33.366Z,8.69
2019-05-17T03:47:33.450Z,8.63
2019-05-17T03:48:33.313Z,8.60
2019-05-17T03:49:33.140Z,8.56
2019-05-17T03:50:33.620Z,8.55
2019-05-17T03:51:33.358Z,8.63
2019-05-17T03:52:33.117Z,8.64
2019-05-17T03:53:33.505Z,8.70
2019-05-17T03:54:32.464Z,8.66
2019-05-17T03:55:33.310Z,8.78
2019-05-17T03:56:32.937Z,8.76
2019-05-17T03:57:32.285Z,8.79
2019-05-17T03:58:33.369Z,8.69
2019-05-17T03:59:33.213Z,8.71
2019-05-17T04:00:30.316Z,8.74
2019-05-17T04:01:32.823Z,8.69
2019-05-17T04:02:32.678Z,8.92
2019-05-17T04:03:32.334Z,8.88
2019-05-17T04:04:32.908Z,8.95
2019-05-17T04:05:33.076Z,9.02
2019-05-17T04:06:32.639Z,9.00
2019-05-17T04:07:32.925Z,8.97
2019-05-17T04:08:33.169Z,9.03
2019-05-17T04:09:32.662Z,9.03
2019-05-17T04:10:33.055Z,9.11
2019-05-17T04:11:32.927Z,9.06
2019-05-17T04:12:32.573Z,9.14
2019-05-17T04:13:29.915Z,9.21
2019-05-17T04:14:33.324Z,9.19
2019-05-17T04:15:32.870Z,9.26
2019-05-17T04:16:29.887Z,9.36
2019-05-17T04:17:32.529Z,9.36
2019-05-17T04:18:29.769Z,9.29
2019-05-17T04:19:29.733Z,9.39
2019-05-17T04:20:32.870Z,9.39
2019-05-17T04:21:29.697Z,9.37
2019-05-17T04:22:32.839Z,9.41
2019-05-17T04:23:29.630Z,9.39
2019-05-17T04:24:32.464Z,9.41
2019-05-17T04:25:29.565Z,9.37
2019-05-17T04:26:32.333Z,9.40
2019-05-17T04:27:29.515Z,9.44
2019-05-17T04:28:33.222Z,9.47
2019-05-17T04:29:29.428Z,9.55
2019-05-17T04:30:32.302Z,9.50
2019-05-17T04:31:31.761Z,9.66
2019-05-17T04:32:29.363Z,9.64
2019-05-17T04:33:29.392Z,9.61
2019-05-17T04:34:29.283Z,9.74
2019-05-17T04:35:32.438Z,9.74
2019-05-17T04:36:29.284Z,9.74
2019-05-17T04:37:29.248Z,9.74
2019-05-17T04:38:29.170Z,9.92
2019-05-17T04:39:29.136Z,9.97
2019-05-17T04:40:29.097Z,10.02
2019-05-17T04:41:44.698Z,10.02
2019-05-17T04:42:29.076Z,9.98
2019-05-17T04:43:29.019Z,9.87
2019-05-17T04:44:28.982Z,9.84
2019-05-17T04:45:28.953Z,9.94
2019-05-17T04:46:28.921Z,9.99
2019-05-17T04:47:28.899Z,9.92
2019-05-17T04:48:28.889Z,9.97
2019-05-17T04:49:28.838Z,10.04
2019-05-17T04:50:28.804Z,10.15
2019-05-17T04:51:28.786Z,10.19
2019-05-17T04:52:28.763Z,10.25
2019-05-17T04:53:28.750Z,10.30
2019-05-17T04:54:28.686Z,10.41
2019-05-17T04:55:28.660Z,10.48
2019-05-17T04:56:28.627Z,10.28
2019-05-17T04:57:28.606Z,10.31
2019-05-17T04:58:28.591Z,10.38
2019-05-17T04:59:28.550Z,10.53
2019-05-17T05:00:28.512Z,10.60
2019-05-17T05:01:28.497Z,10.64
2019-05-17T05:02:28.469Z,10.61
2019-05-17T05:03:28.452Z,10.64
2019-05-17T05:04:28.404Z,10.78
2019-05-17T05:05:28.363Z,10.90
2019-05-17T05:06:28.337Z,10.89
2019-05-17T05:07:28.306Z,10.97
2019-05-17T05:08:28.305Z,11.00
2019-05-17T05:09:28.250Z,10.99
2019-05-17T05:10:28.216Z,10.89
2019-05-17T05:11:28.190Z,10.89
2019-05-17T05:12:28.164Z,11.02
2019-05-17T05:13:28.214Z,11.23
2019-05-17T05:14:28.111Z,11.25
2019-05-17T05:15:28.084Z,11.47
2019-05-17T05:16:28.050Z,11.45
2019-05-17T05:17:28.036Z,11.52
2019-05-17T05:18:28.018Z,11.57
2019-05-17T05:19:27.960Z,11.69
2019-05-17T05:20:28.535Z,11.84
2019-05-17T05:21:27.909Z,11.73
2019-05-17T05:22:27.881Z,11.73
2019-05-17T05:23:27.880Z,11.72
2019-05-17T05:24:27.816Z,11.81
2019-05-17T05:25:27.794Z,11.99
2019-05-17T05:26:27.764Z,12.18
2019-05-17T05:27:27.735Z,12.27
2019-05-17T05:28:27.738Z,12.40
2019-05-17T05:29:27.680Z,12.64
2019-05-17T05:30:27.651Z,12.70
2019-05-17T05:31:27.632Z,12.80
2019-05-17T05:32:27.595Z,12.90
2019-05-17T05:33:27.598Z,12.80
2019-05-17T05:34:27.542Z,12.72
2019-05-17T05:35:27.511Z,12.79
2019-05-17T05:36:27.487Z,12.67
2019-05-17T05:37:27.459Z,12.68
2019-05-17T05:38:27.457Z,12.79
2019-05-17T05:39:27.410Z,12.87
2019-05-17T05:40:27.377Z,12.91
2019-05-17T05:41:27.351Z,13.01
2019-05-17T05:42:27.342Z,13.05
2019-05-17T05:43:27.327Z,13.16
2019-05-17T05:44:27.280Z,13.20
2019-05-17T05:45:27.240Z,13.39
2019-05-17T05:46:27.224Z,13.54
2019-05-17T05:47:27.193Z,13.62
2019-05-17T05:48:27.182Z,13.74
2019-05-17T05:49:27.139Z,13.74
2019-05-17T05:50:27.112Z,13.87
2019-05-17T05:51:27.085Z,13.92
2019-05-17T05:52:27.058Z,13.89
2019-05-17T05:53:27.068Z,13.86
2019-05-17T05:54:27.004Z,13.87
2019-05-17T05:55:27.039Z,13.83
2019-05-17T05:56:26.949Z,13.83
2019-05-17T05:57:26.939Z,13.89
2019-05-17T05:58:26.914Z,13.87
2019-05-17T05:59:26.914Z,13.86
2019-05-17T06:00:26.850Z,13.71
2019-05-17T06:01:26.819Z,13.77
2019-05-17T06:02:26.796Z,13.77
2019-05-17T06:03:26.783Z,13.87
2019-05-17T06:04:26.776Z,13.77
2019-05-17T06:05:26.729Z,13.83
2019-05-17T06:06:26.699Z,13.86
2019-05-17T06:07:26.662Z,13.78
2019-05-17T06:08:26.651Z,13.71
2019-05-17T06:09:26.640Z,13.70
2019-05-17T06:10:26.586Z,13.78
2019-05-17T06:11:26.561Z,13.71
2019-05-17T06:12:28.159Z,13.72
2019-05-17T06:13:26.513Z,13.70
2019-05-17T06:14:26.509Z,13.74
2019-05-17T06:15:26.460Z,13.87
2019-05-17T06:16:26.427Z,13.96
2019-05-17T06:17:26.399Z,14.05
2019-05-17T06:18:26.390Z,14.08
2019-05-17T06:19:26.405Z,14.20
2019-05-17T06:20:26.327Z,14.26
2019-05-17T06:21:26.300Z,14.20
2019-05-17T06:22:26.352Z,14.25
2019-05-17T06:23:26.422Z,14.23
2019-05-17T06:24:26.260Z,14.07
2019-05-17T06:25:26.195Z,14.04
2019-05-17T06:26:26.170Z,14.04
2019-05-17T06:27:26.154Z,14.18
2019-05-17T06:28:26.135Z,14.29
2019-05-17T06:29:26.130Z,14.35
2019-05-17T06:30:26.125Z,14.23
2019-05-17T06:31:26.053Z,14.25
2019-05-17T06:32:26.083Z,14.25
2019-05-17T06:33:30.846Z,14.25
2019-05-17T06:34:25.988Z,14.33
2019-05-17T06:35:25.946Z,14.28
2019-05-17T06:36:25.929Z,14.50
2019-05-17T06:37:25.895Z,14.55
2019-05-17T06:38:25.897Z,14.78
2019-05-17T06:39:25.871Z,15.04
2019-05-17T06:40:25.811Z,15.24
2019-05-17T06:41:25.787Z,15.44
2019-05-17T06:42:37.412Z,15.44
2019-05-17T06:43:25.739Z,15.51
2019-05-17T06:44:25.760Z,15.64
2019-05-17T06:45:25.682Z,15.84
2019-05-17T06:46:25.665Z,15.95
2019-05-17T06:47:25.634Z,16.00
2019-05-17T06:48:25.610Z,15.80
2019-05-17T06:49:25.612Z,15.18
2019-05-17T06:50:25.565Z,15.03
2019-05-17T06:51:25.540Z,14.79
2019-05-17T06:52:25.516Z,14.58
2019-05-17T06:53:25.492Z,14.59
2019-05-17T06:54:25.495Z,14.81
2019-05-17T06:55:25.454Z,15.03
2019-05-17T06:56:25.417Z,15.17
2019-05-17T06:57:25.406Z,15.06
2019-05-17T06:58:25.369Z,15.19
2019-05-17T06:59:25.369Z,15.39
2019-05-17T07:00:25.316Z,15.68
2019-05-17T07:01:25.294Z,15.70
2019-05-17T07:02:25.268Z,15.70
2019-05-17T07:03:25.247Z,15.73
2019-05-17T07:04:25.219Z,15.73
2019-05-17T07:05:25.248Z,15.61
2019-05-17T07:06:25.168Z,15.67
2019-05-17T07:07:25.144Z,15.58
2019-05-17T07:08:25.119Z,15.46
2019-05-17T07:09:25.096Z,15.39
2019-05-17T07:10:25.099Z,15.18
2019-05-17T07:11:25.047Z,15.09
2019-05-17T07:12:25.022Z,15.10
2019-05-17T07:13:25.011Z,15.09
2019-05-17T07:14:24.970Z,15.02
2019-05-17T07:15:24.974Z,15.09
2019-05-17T07:16:24.925Z,15.04
2019-05-17T07:17:24.900Z,14.94
2019-05-17T07:18:24.875Z,14.59
2019-05-17T07:19:24.851Z,14.63
2019-05-17T07:20:24.847Z,14.79
2019-05-17T07:21:24.800Z,14.70
2019-05-17T07:22:24.775Z,14.45
2019-05-17T07:23:24.747Z,14.43
2019-05-17T07:24:24.726Z,14.48
2019-05-17T07:25:24.726Z,14.47
2019-05-17T07:26:24.667Z,14.44
2019-05-17T07:27:37.970Z,14.44
2019-05-17T07:28:24.612Z,14.55
2019-05-17T07:29:24.588Z,14.65
2019-05-17T07:30:24.631Z,14.86
2019-05-17T07:31:24.542Z,15.04
2019-05-17T07:32:24.511Z,15.10
2019-05-17T07:33:24.483Z,15.35
2019-05-17T07:34:24.461Z,15.42
2019-05-17T07:35:24.467Z,15.33
2019-05-17T07:36:24.410Z,15.17
2019-05-17T07:37:24.391Z,15.19
2019-05-17T07:38:24.366Z,15.03
2019-05-17T07:39:24.387Z,15.03
2019-05-17T07:40:24.384Z,14.81
2019-05-17T07:41:24.346Z,14.60
2019-05-17T07:42:24.261Z,14.63
2019-05-17T07:43:24.228Z,14.68
2019-05-17T07:44:24.200Z,14.65
2019-05-17T07:45:24.201Z,14.82
2019-05-17T07:46:24.160Z,14.66
2019-05-17T07:47:24.121Z,14.50
2019-05-17T07:48:24.105Z,14.47
2019-05-17T07:49:24.076Z,14.35
2019-05-17T07:50:24.066Z,14.48
2019-05-17T07:51:24.025Z,14.55
2019-05-17T07:52:23.987Z,14.51
2019-05-17T07:53:23.968Z,14.66
2019-05-17T07:54:23.954Z,14.77
2019-05-17T07:55:23.937Z,14.85
2019-05-17T07:56:23.885Z,14.91
2019-05-17T07:57:23.854Z,14.84
2019-05-17T07:58:23.828Z,14.82
2019-05-17T07:59:23.812Z,14.55
2019-05-17T08:00:23.826Z,14.70
2019-05-17T08:01:23.748Z,14.66
2019-05-17T08:02:23.718Z,14.79
2019-05-17T08:03:24.999Z,14.79
2019-05-17T08:04:23.665Z,14.88
2019-05-17T08:05:23.641Z,15.00
2019-05-17T08:06:23.667Z,15.03
2019-05-17T08:07:23.585Z,15.04
2019-05-17T08:08:23.565Z,15.18
2019-05-17T08:09:23.537Z,15.21
2019-05-17T08:10:23.552Z,15.15
2019-05-17T08:11:23.512Z,15.15
2019-05-17T08:12:23.490Z,15.11
2019-05-17T08:13:30.151Z,15.18
2019-05-17T08:14:29.916Z,15.21
2019-05-17T08:15:23.373Z,15.22
2019-05-17T08:16:23.369Z,15.27
2019-05-17T08:17:23.316Z,15.31
2019-05-17T08:18:23.294Z,15.33
2019-05-17T08:19:23.264Z,15.44
2019-05-17T08:20:23.287Z,15.64
2019-05-17T08:21:23.252Z,15.72
2019-05-17T08:22:23.184Z,15.88
2019-05-17T08:23:23.158Z,16.09
2019-05-17T08:24:23.134Z,16.20
2019-05-17T08:25:23.118Z,16.23
2019-05-17T08:26:23.098Z,16.31
2019-05-17T08:27:23.052Z,16.24
2019-05-17T08:28:23.027Z,16.42
2019-05-17T08:29:23.000Z,16.41
2019-05-17T08:30:22.971Z,16.47
2019-05-17T08:31:22.990Z,16.33
2019-05-17T08:32:22.926Z,16.26
2019-05-17T08:33:22.901Z,16.38
2019-05-17T08:34:22.866Z,16.51
2019-05-17T08:35:22.843Z,16.57
2019-05-17T08:36:22.843Z,16.83
2019-05-17T08:37:22.799Z,17.12
2019-05-17T08:38:22.769Z,17.46
2019-05-17T08:39:22.742Z,17.74
2019-05-17T08:40:22.718Z,17.90
2019-05-17T08:41:22.731Z,18.16
2019-05-17T08:42:22.663Z,18.08
2019-05-17T08:43:22.649Z,18.07
2019-05-17T08:44:22.611Z,17.92
2019-05-17T08:45:22.590Z,17.86
2019-05-17T08:46:22.599Z,17.76
2019-05-17T08:47:22.543Z,17.72
2019-05-17T08:48:22.604Z,17.74
2019-05-17T08:49:22.487Z,17.86
2019-05-17T08:50:22.476Z,17.92
2019-05-17T08:51:22.489Z,17.90
2019-05-17T08:52:22.415Z,18.01
2019-05-17T08:53:22.394Z,17.97
2019-05-17T08:54:22.368Z,17.90
2019-05-17T08:55:22.349Z,17.98
2019-05-17T08:56:22.341Z,17.89
2019-05-17T08:57:22.298Z,17.79
2019-05-17T08:58:22.276Z,17.79
2019-05-17T08:59:22.261Z,17.68
2019-05-17T09:00:22.235Z,17.65
2019-05-17T09:01:22.289Z,17.63
2019-05-17T09:02:22.180Z,17.65
2019-05-17T09:03:22.152Z,17.64
2019-05-17T09:04:22.128Z,17.59
2019-05-17T09:05:22.148Z,17.79
2019-05-17T09:06:22.113Z,18.05
2019-05-17T09:07:22.051Z,18.31
2019-05-17T09:08:29.908Z,18.33
2019-05-17T09:09:21.996Z,18.23
2019-05-17T09:10:21.981Z,18.15
2019-05-17T09:11:21.949Z,18.22
2019-05-17T09:12:21.949Z,18.26
2019-05-17T09:13:21.904Z,18.34
2019-05-17T09:14:21.876Z,18.38
2019-05-17T09:15:21.865Z,18.62
2019-05-17T09:16:21.832Z,18.73
2019-05-17T09:17:21.833Z,18.68
2019-05-17T09:18:21.780Z,18.53
2019-05-17T09:19:21.768Z,18.41
2019-05-17T09:20:21.748Z,18.34
2019-05-17T09:21:22.133Z,18.03
2019-05-17T09:22:21.709Z,17.92
2019-05-17T09:23:21.665Z,17.90
2019-05-17T09:24:21.643Z,18.10
2019-05-17T09:25:22.145Z,18.16
2019-05-17T09:26:21.593Z,18.37
2019-05-17T09:27:21.594Z,18.43
2019-05-17T09:28:21.543Z,18.35
2019-05-17T09:29:21.521Z,18.29
2019-05-17T09:30:21.499Z,18.23
2019-05-17T09:31:21.468Z,18.29
2019-05-17T09:32:21.472Z,18.31
2019-05-17T09:33:21.435Z,18.23
2019-05-17T09:34:21.406Z,18.41
2019-05-17T09:35:21.377Z,18.50
2019-05-17T09:36:21.362Z,18.65
2019-05-17T09:37:22.541Z,18.78
2019-05-17T09:38:21.311Z,19.04
2019-05-17T09:39:21.287Z,19.37
2019-05-17T09:40:21.258Z,19.54
2019-05-17T09:41:21.235Z,19.79
2019-05-17T09:42:21.236Z,19.88
2019-05-17T09:43:21.190Z,20.10
2019-05-17T09:44:21.174Z,20.13
2019-05-17T09:45:21.142Z,20.39
2019-05-17T09:46:21.122Z,20.58
2019-05-17T09:47:21.124Z,20.70
2019-05-17T09:48:21.099Z,20.84
2019-05-17T09:49:21.608Z,20.77
2019-05-17T09:50:21.137Z,20.72
2019-05-17T09:51:21.095Z,20.67
2019-05-17T09:52:21.075Z,20.55
2019-05-17T09:53:20.966Z,20.47
2019-05-17T09:54:20.957Z,20.50
2019-05-17T09:55:20.934Z,20.31
2019-05-17T09:56:20.900Z,20.19
2019-05-17T09:57:20.928Z,19.96
2019-05-17T09:58:21.624Z,19.79
2019-05-17T09:59:20.843Z,19.71
2019-05-17T10:00:21.063Z,19.88
2019-05-17T10:01:20.793Z,19.95
2019-05-17T10:02:20.793Z,20.13
2019-05-17T10:03:23.736Z,20.26
2019-05-17T10:04:20.730Z,20.28
2019-05-17T10:05:20.706Z,20.41
2019-05-17T10:06:20.688Z,20.31
2019-05-17T10:07:20.888Z,20.47
2019-05-17T10:08:20.637Z,20.85
2019-05-17T10:09:20.619Z,21.02
2019-05-17T10:10:20.600Z,21.20
2019-05-17T10:11:20.577Z,21.45
2019-05-17T10:12:20.573Z,21.43
2019-05-17T10:13:20.530Z,21.51
2019-05-17T10:14:28.211Z,21.39
2019-05-17T10:15:20.824Z,21.22
2019-05-17T10:16:20.540Z,21.39
2019-05-17T10:17:21.190Z,21.40
2019-05-17T10:18:20.436Z,21.45
2019-05-17T10:19:23.504Z,21.58
2019-05-17T10:20:20.384Z,21.52
2019-05-17T10:21:20.361Z,21.58
2019-05-17T10:22:20.339Z,21.67
2019-05-17T10:23:20.346Z,21.72
2019-05-17T10:24:34.874Z,21.69
2019-05-17T10:25:20.298Z,21.72
2019-05-17T10:26:20.259Z,21.88
2019-05-17T10:27:20.352Z,21.93
2019-05-17T10:28:20.646Z,22.10
2019-05-17T10:29:20.206Z,22.13
2019-05-17T10:30:20.968Z,22.11
2019-05-17T10:31:20.153Z,22.13
2019-05-17T10:32:20.633Z,22.04
2019-05-17T10:33:20.179Z,22.04
2019-05-17T10:34:20.374Z,22.14
2019-05-17T10:35:20.332Z,22.22
2019-05-17T10:36:20.342Z,22.15
2019-05-17T10:37:20.433Z,21.95
2019-05-17T10:38:20.038Z,21.66
2019-05-17T10:39:20.035Z,21.52
2019-05-17T10:40:20.830Z,21.33
2019-05-17T10:41:20.090Z,21.22
2019-05-17T10:42:20.958Z,21.37
2019-05-17T10:43:20.494Z,21.51
2019-05-17T10:44:19.942Z,21.75
2019-05-17T10:45:19.993Z,21.91
2019-05-17T10:46:20.585Z,22.00
2019-05-17T10:47:19.872Z,22.15
2019-05-17T10:48:21.183Z,22.36
2019-05-17T10:49:20.258Z,22.45
2019-05-17T10:50:20.623Z,22.68
2019-05-17T10:51:20.261Z,22.70
2019-05-17T10:52:20.345Z,22.87
2019-05-17T10:53:20.389Z,22.94
2019-05-17T10:54:20.665Z,22.98
2019-05-17T10:55:20.112Z,22.98
2019-05-17T10:56:23.207Z,23.03
2019-05-17T10:57:19.706Z,22.91
2019-05-17T10:58:21.296Z,22.94
2019-05-17T10:59:20.282Z,22.85
2019-05-17T11:00:19.851Z,22.87
2019-05-17T11:01:20.074Z,22.84
2019-05-17T11:02:19.799Z,22.81
2019-05-17T11:03:20.338Z,22.73
2019-05-17T11:04:19.812Z,22.66
2019-05-17T11:05:20.105Z,22.60
2019-05-17T11:06:19.829Z,22.50
2019-05-17T11:07:19.968Z,22.39
2019-05-17T11:08:19.825Z,22.26
2019-05-17T11:09:20.593Z,22.28
2019-05-17T11:10:19.557Z,22.39
2019-05-17T11:11:20.057Z,22.43
2019-05-17T11:12:19.344Z,22.47
2019-05-17T11:13:19.349Z,22.53
2019-05-17T11:14:19.304Z,22.66
2019-05-17T11:15:19.286Z,22.84
2019-05-17T11:16:19.272Z,22.87
2019-05-17T11:17:19.292Z,22.90
2019-05-17T11:18:19.256Z,22.88
2019-05-17T11:19:19.209Z,22.85
2019-05-17T11:20:19.195Z,22.75
2019-05-17T11:21:19.173Z,22.57
2019-05-17T11:22:19.161Z,22.62
2019-05-17T11:23:19.180Z,22.66
2019-05-17T11:24:19.116Z,22.76
2019-05-17T11:25:19.100Z,22.69
2019-05-17T11:26:19.117Z,22.70
2019-05-17T11:27:19.057Z,22.50
2019-05-17T11:28:19.039Z,22.38
2019-05-17T11:29:19.070Z,22.32
2019-05-17T11:30:19.005Z,22.14
2019-05-17T11:31:18.994Z,22.10
2019-05-17T11:32:18.961Z,21.79
2019-05-17T11:33:18.945Z,21.75
2019-05-17T11:34:18.954Z,21.58
2019-05-17T11:35:18.905Z,21.51
2019-05-17T11:36:18.887Z,21.60
2019-05-17T11:37:18.865Z,21.69
2019-05-17T11:38:18.846Z,21.85
2019-05-17T11:39:18.865Z,21.99
2019-05-17T11:40:18.803Z,22.11
2019-05-17T11:41:21.475Z,22.20
2019-05-17T11:42:18.780Z,22.43
2019-05-17T11:43:18.757Z,22.48
2019-05-17T11:44:18.753Z,22.50
2019-05-17T11:45:27.355Z,22.48
2019-05-17T11:46:18.696Z,22.39
2019-05-17T11:47:18.689Z,22.26
2019-05-17T11:48:18.648Z,22.26
2019-05-17T11:49:18.655Z,22.14
2019-05-17T11:50:18.608Z,21.93
2019-05-17T11:51:18.592Z,21.88
2019-05-17T11:52:18.567Z,21.88
2019-05-17T11:53:18.553Z,21.77
2019-05-17T11:54:18.557Z,21.79
2019-05-17T11:55:18.523Z,21.75
2019-05-17T11:56:18.495Z,21.76
2019-05-17T11:57:18.477Z,21.99
2019-05-17T11:58:18.459Z,21.82
2019-05-17T11:59:18.463Z,22.04
2019-05-17T12:00:18.448Z,22.29
2019-05-17T12:01:18.396Z,22.60
2019-05-17T12:02:21.384Z,22.65
2019-05-17T12:03:18.390Z,22.85
2019-05-17T12:04:18.365Z,23.21
2019-05-17T12:05:18.318Z,23.36
2019-05-17T12:06:18.302Z,23.51
2019-05-17T12:07:18.276Z,23.55
2019-05-17T12:08:18.296Z,23.55
2019-05-17T12:09:18.264Z,23.77
2019-05-17T12:10:18.251Z,23.76
2019-05-17T12:11:18.199Z,23.73
2019-05-17T12:12:18.181Z,23.86
2019-05-17T12:13:18.165Z,24.16
2019-05-17T12:14:18.187Z,24.43
2019-05-17T12:15:18.196Z,24.48
2019-05-17T12:16:18.116Z,24.61
2019-05-17T12:17:18.133Z,24.58
2019-05-17T12:18:18.101Z,24.60
2019-05-17T12:19:18.108Z,24.57
2019-05-17T12:20:18.038Z,24.68
2019-05-17T12:21:18.023Z,24.48
2019-05-17T12:22:17.996Z,24.47
2019-05-17T12:23:17.991Z,24.39
2019-05-17T12:24:17.985Z,24.38
2019-05-17T12:25:17.946Z,24.32
2019-05-17T12:26:17.973Z,24.35
2019-05-17T12:27:17.909Z,24.42
2019-05-17T12:28:17.922Z,24.43
2019-05-17T12:29:17.906Z,24.58
2019-05-17T12:30:17.856Z,24.55
2019-05-17T12:31:17.839Z,24.57
2019-05-17T12:32:17.819Z,24.48
2019-05-17T12:33:17.801Z,24.43
2019-05-17T12:34:17.804Z,24.61
2019-05-17T12:35:17.767Z,24.47
2019-05-17T12:36:17.757Z,24.47
2019-05-17T12:37:17.732Z,24.55
2019-05-17T12:38:17.719Z,24.80
2019-05-17T12:39:17.770Z,24.91
2019-05-17T12:40:17.676Z,25.04
2019-05-17T12:41:17.662Z,25.07
2019-05-17T12:42:17.645Z,25.16
2019-05-17T12:43:17.629Z,25.25
2019-05-17T12:44:17.610Z,25.11
2019-05-17T12:45:17.618Z,25.08
2019-05-17T12:46:17.577Z,24.99
2019-05-17T12:47:17.560Z,25.01
2019-05-17T12:48:17.541Z,25.11
2019-05-17T12:49:17.525Z,24.93
2019-05-17T12:50:17.529Z,24.61
2019-05-17T12:51:17.489Z,24.50
2019-05-17T12:52:17.468Z,24.45
2019-05-17T12:53:17.452Z,24.47
2019-05-17T12:54:17.435Z,24.57
2019-05-17T12:55:17.447Z,24.43
2019-05-17T12:56:17.399Z,24.39
2019-05-17T12:57:17.385Z,24.36
2019-05-17T12:58:17.402Z,24.47
2019-05-17T12:59:17.359Z,24.21
2019-05-17T13:00:17.359Z,24.45
2019-05-17T13:01:17.312Z,24.50